sensor_id;sensor_type;location;lat;lon;timestamp;temperature;humidity
5011;DHT22;2524;54.364;10.072;2023-07-16T00:02:04;21.60;99.90
5011;DHT22;2524;54.364;10.072;2023-07-16T00:04:31;21.50;99.90
5011;DHT22;2524;54.364;10.072;2023-07-16T00:06:56;21.30;99.90
5011;DHT22;2524;54.364;10.072;2023-07-16T00:09:22;21.30;99.90
5011;DHT22;2524;54.364;10.072;2023-07-16T00:11:47;21.30;99.90
5011;DHT22;2524;54.364;10.072;2023-07-16T00:14:13;21.20;99.90
5011;DHT22;2524;54.364;10.072;2023-07-16T00:16:38;21.20;99.90
5011;DHT22;2524;54.364;10.072;2023-07-16T00:19:04;21.00;99.90
5011;DHT22;2524;54.364;10.072;2023-07-16T00:21:30;20.90;99.90
5011;DHT22;2524;54.364;10.072;2023-07-16T00:23:56;20.90;99.90
5011;DHT22;2524;54.364;10.072;2023-07-16T00:26:21;20.90;99.90
5011;DHT22;2524;54.364;10.072;2023-07-16T00:28:47;20.90;99.90
5011;DHT22;2524;54.364;10.072;2023-07-16T00:31:13;20.90;99.90
5011;DHT22;2524;54.364;10.072;2023-07-16T00:33:38;20.90;99.90
5011;DHT22;2524;54.364;10.072;2023-07-16T00:36:04;20.90;99.90
5011;DHT22;2524;54.364;10.072;2023-07-16T00:38:29;20.90;99.90
5011;DHT22;2524;54.364;10.072;2023-07-16T00:40:56;20.80;99.90
5011;DHT22;2524;54.364;10.072;2023-07-16T00:43:21;20.70;99.90
5011;DHT22;2524;54.364;10.072;2023-07-16T00:45:47;20.80;99.90
5011;DHT22;2524;54.364;10.072;2023-07-16T00:48:13;20.70;99.90
5011;DHT22;2524;54.364;10.072;2023-07-16T00:50:40;20.60;99.90
5011;DHT22;2524;54.364;10.072;2023-07-16T00:53:06;20.60;99.90
5011;DHT22;2524;54.364;10.072;2023-07-16T00:55:33;20.60;99.90
5011;DHT22;2524;54.364;10.072;2023-07-16T00:58:03;20.60;99.90
5011;DHT22;2524;54.364;10.072;2023-07-16T01:00:31;20.60;99.90
5011;DHT22;2524;54.364;10.072;2023-07-16T01:02:57;20.60;99.90
5011;DHT22;2524;54.364;10.072;2023-07-16T01:05:24;20.60;99.90
5011;DHT22;2524;54.364;10.072;2023-07-16T01:07:57;20.60;99.90
5011;DHT22;2524;54.364;10.072;2023-07-16T01:10:23;20.60;99.90
5011;DHT22;2524;54.364;10.072;2023-07-16T01:12:53;20.60;99.90
5011;DHT22;2524;54.364;10.072;2023-07-16T01:15:20;20.50;99.90
5011;DHT22;2524;54.364;10.072;2023-07-16T01:17:45;20.50;99.90
5011;DHT22;2524;54.364;10.072;2023-07-16T01:20:11;20.50;99.90
5011;DHT22;2524;54.364;10.072;2023-07-16T01:26:02;20.40;99.90
5011;DHT22;2524;54.364;10.072;2023-07-16T01:31:01;20.30;99.90
5011;DHT22;2524;54.364;10.072;2023-07-16T01:33:27;20.20;99.90
5011;DHT22;2524;54.364;10.072;2023-07-16T01:35:53;20.20;99.90
5011;DHT22;2524;54.364;10.072;2023-07-16T01:38:19;20.20;99.90
5011;DHT22;2524;54.364;10.072;2023-07-16T01:40:46;20.10;99.90
5011;DHT22;2524;54.364;10.072;2023-07-16T01:43:12;20.10;99.90
5011;DHT22;2524;54.364;10.072;2023-07-16T01:45:38;20.20;99.90
5011;DHT22;2524;54.364;10.072;2023-07-16T01:50:29;20.10;99.90
5011;DHT22;2524;54.364;10.072;2023-07-16T01:52:55;20.10;99.90
5011;DHT22;2524;54.364;10.072;2023-07-16T01:55:20;20.00;99.90
5011;DHT22;2524;54.364;10.072;2023-07-16T01:57:46;20.00;99.90
5011;DHT22;2524;54.364;10.072;2023-07-16T02:00:12;20.00;99.90
5011;DHT22;2524;54.364;10.072;2023-07-16T02:02:37;20.00;99.90
5011;DHT22;2524;54.364;10.072;2023-07-16T02:05:04;20.00;99.90
5011;DHT22;2524;54.364;10.072;2023-07-16T02:07:29;19.90;99.90
5011;DHT22;2524;54.364;10.072;2023-07-16T02:09:55;20.00;99.90
5011;DHT22;2524;54.364;10.072;2023-07-16T02:12:20;19.80;99.90
5011;DHT22;2524;54.364;10.072;2023-07-16T02:14:46;19.70;99.90
5011;DHT22;2524;54.364;10.072;2023-07-16T02:17:11;19.70;99.90
5011;DHT22;2524;54.364;10.072;2023-07-16T02:19:37;19.70;99.90
5011;DHT22;2524;54.364;10.072;2023-07-16T02:22:02;19.70;99.90
5011;DHT22;2524;54.364;10.072;2023-07-16T02:24:28;19.60;99.90
5011;DHT22;2524;54.364;10.072;2023-07-16T02:26:54;19.60;99.90
5011;DHT22;2524;54.364;10.072;2023-07-16T02:29:19;19.70;99.90
5011;DHT22;2524;54.364;10.072;2023-07-16T02:31:45;19.60;99.90
5011;DHT22;2524;54.364;10.072;2023-07-16T02:34:12;19.70;99.90
5011;DHT22;2524;54.364;10.072;2023-07-16T02:36:37;19.70;99.90
5011;DHT22;2524;54.364;10.072;2023-07-16T02:39:03;19.60;99.90
5011;DHT22;2524;54.364;10.072;2023-07-16T02:41:28;19.50;99.90
5011;DHT22;2524;54.364;10.072;2023-07-16T02:44:04;19.50;99.90
5011;DHT22;2524;54.364;10.072;2023-07-16T02:46:29;19.50;99.90
5011;DHT22;2524;54.364;10.072;2023-07-16T02:48:55;19.60;99.90
5011;DHT22;2524;54.364;10.072;2023-07-16T02:51:20;19.50;99.90
5011;DHT22;2524;54.364;10.072;2023-07-16T02:53:46;19.60;99.90
5011;DHT22;2524;54.364;10.072;2023-07-16T02:56:11;19.50;99.90
5011;DHT22;2524;54.364;10.072;2023-07-16T02:58:37;19.50;99.90
5011;DHT22;2524;54.364;10.072;2023-07-16T03:01:02;19.50;99.90
5011;DHT22;2524;54.364;10.072;2023-07-16T03:03:28;19.50;99.90
5011;DHT22;2524;54.364;10.072;2023-07-16T03:05:54;19.50;99.90
5011;DHT22;2524;54.364;10.072;2023-07-16T03:08:19;19.50;99.90
5011;DHT22;2524;54.364;10.072;2023-07-16T03:10:45;19.50;99.90
5011;DHT22;2524;54.364;10.072;2023-07-16T03:26:26;19.30;99.90
5011;DHT22;2524;54.364;10.072;2023-07-16T03:29:04;19.30;99.90
5011;DHT22;2524;54.364;10.072;2023-07-16T03:31:41;19.40;99.90
5011;DHT22;2524;54.364;10.072;2023-07-16T03:34:06;19.40;99.90
5011;DHT22;2524;54.364;10.072;2023-07-16T03:36:32;19.50;99.90
5011;DHT22;2524;54.364;10.072;2023-07-16T03:38:57;19.50;99.90
5011;DHT22;2524;54.364;10.072;2023-07-16T03:41:23;19.40;99.90
5011;DHT22;2524;54.364;10.072;2023-07-16T03:43:49;19.40;99.90
5011;DHT22;2524;54.364;10.072;2023-07-16T03:46:14;19.40;99.90
5011;DHT22;2524;54.364;10.072;2023-07-16T03:48:40;19.40;99.90
5011;DHT22;2524;54.364;10.072;2023-07-16T03:51:05;19.30;99.90
5011;DHT22;2524;54.364;10.072;2023-07-16T03:53:31;19.30;99.90
5011;DHT22;2524;54.364;10.072;2023-07-16T03:55:56;19.20;99.90
5011;DHT22;2524;54.364;10.072;2023-07-16T03:58:22;19.20;99.90
5011;DHT22;2524;54.364;10.072;2023-07-16T04:00:48;19.20;99.90
5011;DHT22;2524;54.364;10.072;2023-07-16T04:03:14;19.20;99.90
5011;DHT22;2524;54.364;10.072;2023-07-16T04:05:39;19.40;99.90
5011;DHT22;2524;54.364;10.072;2023-07-16T04:08:05;19.20;99.90
5011;DHT22;2524;54.364;10.072;2023-07-16T04:10:30;19.20;99.90
5011;DHT22;2524;54.364;10.072;2023-07-16T04:12:56;19.20;99.90
5011;DHT22;2524;54.364;10.072;2023-07-16T04:15:22;19.20;99.90
5011;DHT22;2524;54.364;10.072;2023-07-16T04:17:47;19.20;99.90
5011;DHT22;2524;54.364;10.072;2023-07-16T04:20:13;19.20;99.90
5011;DHT22;2524;54.364;10.072;2023-07-16T04:22:39;19.20;99.90
5011;DHT22;2524;54.364;10.072;2023-07-16T04:25:04;19.20;99.90
5011;DHT22;2524;54.364;10.072;2023-07-16T04:27:30;19.10;99.90
5011;DHT22;2524;54.364;10.072;2023-07-16T04:29:56;19.10;99.90
5011;DHT22;2524;54.364;10.072;2023-07-16T04:32:21;19.10;99.90
5011;DHT22;2524;54.364;10.072;2023-07-16T04:34:47;19.10;99.90
5011;DHT22;2524;54.364;10.072;2023-07-16T04:37:13;19.00;99.90
5011;DHT22;2524;54.364;10.072;2023-07-16T04:39:38;19.00;99.90
5011;DHT22;2524;54.364;10.072;2023-07-16T04:42:04;19.10;99.90
5011;DHT22;2524;54.364;10.072;2023-07-16T04:44:30;19.00;99.90
5011;DHT22;2524;54.364;10.072;2023-07-16T04:46:55;19.00;99.90
5011;DHT22;2524;54.364;10.072;2023-07-16T04:49:21;19.00;99.90
5011;DHT22;2524;54.364;10.072;2023-07-16T04:51:47;19.00;99.90
5011;DHT22;2524;54.364;10.072;2023-07-16T04:54:12;19.00;99.90
5011;DHT22;2524;54.364;10.072;2023-07-16T04:56:38;19.00;99.90
5011;DHT22;2524;54.364;10.072;2023-07-16T04:59:04;19.00;99.90
5011;DHT22;2524;54.364;10.072;2023-07-16T05:01:29;19.00;99.90
5011;DHT22;2524;54.364;10.072;2023-07-16T05:03:55;19.10;99.90
5011;DHT22;2524;54.364;10.072;2023-07-16T05:06:20;19.10;99.90
5011;DHT22;2524;54.364;10.072;2023-07-16T05:08:46;19.00;99.90
5011;DHT22;2524;54.364;10.072;2023-07-16T05:11:12;19.00;99.90
5011;DHT22;2524;54.364;10.072;2023-07-16T05:13:38;19.10;99.90
5011;DHT22;2524;54.364;10.072;2023-07-16T05:16:04;19.00;99.90
5011;DHT22;2524;54.364;10.072;2023-07-16T05:18:29;19.00;99.90
5011;DHT22;2524;54.364;10.072;2023-07-16T05:20:55;19.00;99.90
5011;DHT22;2524;54.364;10.072;2023-07-16T05:23:22;19.00;99.90
5011;DHT22;2524;54.364;10.072;2023-07-16T05:25:48;19.00;99.90
5011;DHT22;2524;54.364;10.072;2023-07-16T05:28:15;19.00;99.90
5011;DHT22;2524;54.364;10.072;2023-07-16T05:30:41;19.10;99.90
5011;DHT22;2524;54.364;10.072;2023-07-16T05:33:07;19.00;99.90
5011;DHT22;2524;54.364;10.072;2023-07-16T05:35:32;19.00;99.90
5011;DHT22;2524;54.364;10.072;2023-07-16T05:37:58;19.10;99.90
5011;DHT22;2524;54.364;10.072;2023-07-16T05:40:24;19.00;99.90
5011;DHT22;2524;54.364;10.072;2023-07-16T05:42:50;19.00;99.90
5011;DHT22;2524;54.364;10.072;2023-07-16T05:45:15;19.00;99.90
5011;DHT22;2524;54.364;10.072;2023-07-16T05:47:41;19.00;99.90
5011;DHT22;2524;54.364;10.072;2023-07-16T05:50:07;19.00;99.90
5011;DHT22;2524;54.364;10.072;2023-07-16T05:52:36;19.00;99.90
5011;DHT22;2524;54.364;10.072;2023-07-16T05:55:02;19.10;99.90
5011;DHT22;2524;54.364;10.072;2023-07-16T05:57:28;19.00;99.90
5011;DHT22;2524;54.364;10.072;2023-07-16T05:59:53;19.10;99.90
5011;DHT22;2524;54.364;10.072;2023-07-16T06:02:19;19.20;99.90
5011;DHT22;2524;54.364;10.072;2023-07-16T06:04:45;19.20;99.90
5011;DHT22;2524;54.364;10.072;2023-07-16T06:07:12;19.20;99.90
5011;DHT22;2524;54.364;10.072;2023-07-16T06:09:38;19.20;99.90
5011;DHT22;2524;54.364;10.072;2023-07-16T06:12:04;19.20;99.90
5011;DHT22;2524;54.364;10.072;2023-07-16T06:14:30;19.20;99.90
5011;DHT22;2524;54.364;10.072;2023-07-16T06:16:55;19.20;99.90
5011;DHT22;2524;54.364;10.072;2023-07-16T06:19:21;19.30;99.90
5011;DHT22;2524;54.364;10.072;2023-07-16T06:21:47;19.30;99.90
5011;DHT22;2524;54.364;10.072;2023-07-16T06:24:12;19.40;99.90
5011;DHT22;2524;54.364;10.072;2023-07-16T06:26:38;19.40;99.90
5011;DHT22;2524;54.364;10.072;2023-07-16T06:29:04;19.50;99.90
5011;DHT22;2524;54.364;10.072;2023-07-16T06:31:29;19.40;99.90
5011;DHT22;2524;54.364;10.072;2023-07-16T06:33:55;19.40;99.90
5011;DHT22;2524;54.364;10.072;2023-07-16T06:36:20;19.50;99.90
5011;DHT22;2524;54.364;10.072;2023-07-16T06:38:46;19.50;99.90
5011;DHT22;2524;54.364;10.072;2023-07-16T06:41:12;19.50;99.90
5011;DHT22;2524;54.364;10.072;2023-07-16T06:43:37;19.60;99.90
5011;DHT22;2524;54.364;10.072;2023-07-16T06:46:03;19.70;99.90
5011;DHT22;2524;54.364;10.072;2023-07-16T06:48:29;19.70;99.90
5011;DHT22;2524;54.364;10.072;2023-07-16T06:50:54;19.70;99.90
5011;DHT22;2524;54.364;10.072;2023-07-16T06:53:20;19.70;99.90
5011;DHT22;2524;54.364;10.072;2023-07-16T06:55:47;19.70;99.90
5011;DHT22;2524;54.364;10.072;2023-07-16T06:58:14;19.70;99.90
5011;DHT22;2524;54.364;10.072;2023-07-16T07:00:40;19.70;99.90
5011;DHT22;2524;54.364;10.072;2023-07-16T07:03:05;19.80;99.90
5011;DHT22;2524;54.364;10.072;2023-07-16T07:05:31;19.80;99.90
5011;DHT22;2524;54.364;10.072;2023-07-16T07:07:56;19.90;99.90
5011;DHT22;2524;54.364;10.072;2023-07-16T07:10:22;19.90;99.90
5011;DHT22;2524;54.364;10.072;2023-07-16T07:12:47;20.00;99.90
5011;DHT22;2524;54.364;10.072;2023-07-16T07:15:13;20.10;99.90
5011;DHT22;2524;54.364;10.072;2023-07-16T07:17:39;20.20;99.90
5011;DHT22;2524;54.364;10.072;2023-07-16T07:20:08;20.10;99.90
5011;DHT22;2524;54.364;10.072;2023-07-16T07:22:34;20.20;99.90
5011;DHT22;2524;54.364;10.072;2023-07-16T07:24:59;20.20;99.90
5011;DHT22;2524;54.364;10.072;2023-07-16T07:27:25;20.10;99.90
5011;DHT22;2524;54.364;10.072;2023-07-16T07:29:51;20.20;99.90
5011;DHT22;2524;54.364;10.072;2023-07-16T07:32:19;20.30;99.90
5011;DHT22;2524;54.364;10.072;2023-07-16T07:34:45;20.30;99.90
5011;DHT22;2524;54.364;10.072;2023-07-16T07:37:11;20.50;99.90
5011;DHT22;2524;54.364;10.072;2023-07-16T07:39:37;20.40;99.90
5011;DHT22;2524;54.364;10.072;2023-07-16T07:42:03;20.40;99.90
5011;DHT22;2524;54.364;10.072;2023-07-16T07:44:28;20.30;99.90
5011;DHT22;2524;54.364;10.072;2023-07-16T07:46:54;20.30;99.90
5011;DHT22;2524;54.364;10.072;2023-07-16T07:49:19;20.50;99.90
5011;DHT22;2524;54.364;10.072;2023-07-16T07:51:45;20.40;99.90
5011;DHT22;2524;54.364;10.072;2023-07-16T07:54:12;20.60;99.90
5011;DHT22;2524;54.364;10.072;2023-07-16T07:56:38;20.50;99.90
5011;DHT22;2524;54.364;10.072;2023-07-16T07:59:04;20.60;99.90
5011;DHT22;2524;54.364;10.072;2023-07-16T08:01:30;20.70;99.90
5011;DHT22;2524;54.364;10.072;2023-07-16T08:03:56;20.70;99.90
5011;DHT22;2524;54.364;10.072;2023-07-16T08:06:21;20.70;99.90
5011;DHT22;2524;54.364;10.072;2023-07-16T08:08:47;20.70;99.90
5011;DHT22;2524;54.364;10.072;2023-07-16T08:11:12;20.80;99.90
5011;DHT22;2524;54.364;10.072;2023-07-16T08:13:38;20.80;99.90
5011;DHT22;2524;54.364;10.072;2023-07-16T08:16:04;20.90;99.90
5011;DHT22;2524;54.364;10.072;2023-07-16T08:18:29;20.90;99.90
5011;DHT22;2524;54.364;10.072;2023-07-16T08:20:57;21.10;99.90
5011;DHT22;2524;54.364;10.072;2023-07-16T08:23:23;21.10;99.90
5011;DHT22;2524;54.364;10.072;2023-07-16T08:25:49;21.10;99.90
5011;DHT22;2524;54.364;10.072;2023-07-16T08:28:15;21.20;99.90
5011;DHT22;2524;54.364;10.072;2023-07-16T08:30:41;21.30;99.90
5011;DHT22;2524;54.364;10.072;2023-07-16T08:33:07;21.30;99.90
5011;DHT22;2524;54.364;10.072;2023-07-16T08:35:32;21.40;99.40
5011;DHT22;2524;54.364;10.072;2023-07-16T08:37:58;21.30;98.90
5011;DHT22;2524;54.364;10.072;2023-07-16T08:40:23;21.20;99.20
5011;DHT22;2524;54.364;10.072;2023-07-16T08:42:49;21.20;99.50
5011;DHT22;2524;54.364;10.072;2023-07-16T08:45:16;21.30;99.70
5011;DHT22;2524;54.364;10.072;2023-07-16T08:47:42;21.30;99.80
5011;DHT22;2524;54.364;10.072;2023-07-16T08:50:09;21.40;99.80
5011;DHT22;2524;54.364;10.072;2023-07-16T08:52:35;21.40;99.20
5011;DHT22;2524;54.364;10.072;2023-07-16T08:55:01;21.40;99.40
5011;DHT22;2524;54.364;10.072;2023-07-16T08:57:26;21.60;99.50
5011;DHT22;2524;54.364;10.072;2023-07-16T08:59:53;21.50;98.70
5011;DHT22;2524;54.364;10.072;2023-07-16T09:02:21;21.50;98.50
5011;DHT22;2524;54.364;10.072;2023-07-16T09:04:47;21.40;98.40
5011;DHT22;2524;54.364;10.072;2023-07-16T09:07:14;21.40;98.10
5011;DHT22;2524;54.364;10.072;2023-07-16T09:09:39;21.30;97.80
5011;DHT22;2524;54.364;10.072;2023-07-16T09:12:05;21.40;98.00
5011;DHT22;2524;54.364;10.072;2023-07-16T09:17:03;21.60;98.80
5011;DHT22;2524;54.364;10.072;2023-07-16T09:19:32;21.70;98.50
5011;DHT22;2524;54.364;10.072;2023-07-16T09:21:57;21.80;98.20
5011;DHT22;2524;54.364;10.072;2023-07-16T09:24:23;21.80;97.80
5011;DHT22;2524;54.364;10.072;2023-07-16T09:26:50;21.80;97.70
5011;DHT22;2524;54.364;10.072;2023-07-16T09:29:17;21.80;97.70
5011;DHT22;2524;54.364;10.072;2023-07-16T09:31:59;21.70;97.50
5011;DHT22;2524;54.364;10.072;2023-07-16T09:34:29;21.70;97.50
5011;DHT22;2524;54.364;10.072;2023-07-16T09:36:55;21.60;97.50
5011;DHT22;2524;54.364;10.072;2023-07-16T09:39:22;21.60;97.60
5011;DHT22;2524;54.364;10.072;2023-07-16T09:41:49;21.60;97.60
5011;DHT22;2524;54.364;10.072;2023-07-16T09:44:16;21.60;97.70
5011;DHT22;2524;54.364;10.072;2023-07-16T09:46:42;21.60;97.70
5011;DHT22;2524;54.364;10.072;2023-07-16T09:49:08;21.60;97.50
5011;DHT22;2524;54.364;10.072;2023-07-16T09:51:38;21.60;97.60
5011;DHT22;2524;54.364;10.072;2023-07-16T09:54:04;21.60;97.70
5011;DHT22;2524;54.364;10.072;2023-07-16T09:56:45;21.60;97.60
5011;DHT22;2524;54.364;10.072;2023-07-16T09:59:18;21.60;97.30
5011;DHT22;2524;54.364;10.072;2023-07-16T10:01:45;21.70;97.40
5011;DHT22;2524;54.364;10.072;2023-07-16T10:04:18;21.70;97.60
5011;DHT22;2524;54.364;10.072;2023-07-16T10:06:55;21.90;97.40
5011;DHT22;2524;54.364;10.072;2023-07-16T10:14:43;21.80;97.30
5011;DHT22;2524;54.364;10.072;2023-07-16T10:17:13;21.80;97.00
5011;DHT22;2524;54.364;10.072;2023-07-16T10:20:11;21.80;96.80
5011;DHT22;2524;54.364;10.072;2023-07-16T10:22:42;21.70;96.70
5011;DHT22;2524;54.364;10.072;2023-07-16T10:27:36;21.70;96.70
5011;DHT22;2524;54.364;10.072;2023-07-16T10:30:03;21.80;96.70
5011;DHT22;2524;54.364;10.072;2023-07-16T10:32:31;21.70;96.60
5011;DHT22;2524;54.364;10.072;2023-07-16T10:34:57;21.80;96.60
5011;DHT22;2524;54.364;10.072;2023-07-16T10:37:23;21.90;96.70
5011;DHT22;2524;54.364;10.072;2023-07-16T10:39:51;21.90;96.60
5011;DHT22;2524;54.364;10.072;2023-07-16T10:42:17;22.00;96.10
5011;DHT22;2524;54.364;10.072;2023-07-16T10:44:44;22.00;96.20
5011;DHT22;2524;54.364;10.072;2023-07-16T10:47:30;22.00;95.80
5011;DHT22;2524;54.364;10.072;2023-07-16T10:49:56;22.00;95.90
5011;DHT22;2524;54.364;10.072;2023-07-16T10:52:22;22.00;96.00
5011;DHT22;2524;54.364;10.072;2023-07-16T10:54:49;22.10;96.20
5011;DHT22;2524;54.364;10.072;2023-07-16T10:57:16;22.30;95.80
5011;DHT22;2524;54.364;10.072;2023-07-16T10:59:42;22.30;95.40
5011;DHT22;2524;54.364;10.072;2023-07-16T11:02:15;22.40;95.60
5011;DHT22;2524;54.364;10.072;2023-07-16T11:04:42;22.50;95.10
5011;DHT22;2524;54.364;10.072;2023-07-16T11:07:08;22.30;94.10
5011;DHT22;2524;54.364;10.072;2023-07-16T11:09:39;22.30;94.10
5011;DHT22;2524;54.364;10.072;2023-07-16T11:12:10;22.20;94.40
5011;DHT22;2524;54.364;10.072;2023-07-16T11:14:36;22.10;94.50
5011;DHT22;2524;54.364;10.072;2023-07-16T11:17:06;22.10;94.80
5011;DHT22;2524;54.364;10.072;2023-07-16T11:19:33;22.10;94.70
5011;DHT22;2524;54.364;10.072;2023-07-16T11:21:59;22.20;95.00
5011;DHT22;2524;54.364;10.072;2023-07-16T11:24:25;22.20;95.00
5011;DHT22;2524;54.364;10.072;2023-07-16T11:26:53;22.20;94.80
5011;DHT22;2524;54.364;10.072;2023-07-16T11:29:20;22.10;94.70
5011;DHT22;2524;54.364;10.072;2023-07-16T11:31:50;22.00;94.70
5011;DHT22;2524;54.364;10.072;2023-07-16T11:34:16;22.00;94.80
5011;DHT22;2524;54.364;10.072;2023-07-16T11:36:42;22.00;95.00
5011;DHT22;2524;54.364;10.072;2023-07-16T11:39:10;22.10;95.20
5011;DHT22;2524;54.364;10.072;2023-07-16T11:41:35;22.20;95.20
5011;DHT22;2524;54.364;10.072;2023-07-16T11:44:01;22.30;94.80
5011;DHT22;2524;54.364;10.072;2023-07-16T11:46:33;22.20;94.60
5011;DHT22;2524;54.364;10.072;2023-07-16T11:49:02;22.20;94.70
5011;DHT22;2524;54.364;10.072;2023-07-16T11:51:29;22.20;94.70
5011;DHT22;2524;54.364;10.072;2023-07-16T11:53:56;22.10;94.60
5011;DHT22;2524;54.364;10.072;2023-07-16T11:56:22;22.10;94.70
5011;DHT22;2524;54.364;10.072;2023-07-16T11:58:50;22.10;95.00
5011;DHT22;2524;54.364;10.072;2023-07-16T12:01:16;22.10;94.80
5011;DHT22;2524;54.364;10.072;2023-07-16T12:03:41;22.10;94.90
5011;DHT22;2524;54.364;10.072;2023-07-16T12:06:09;22.10;94.90
5011;DHT22;2524;54.364;10.072;2023-07-16T12:08:34;22.20;94.90
5011;DHT22;2524;54.364;10.072;2023-07-16T12:11:00;22.10;94.70
5011;DHT22;2524;54.364;10.072;2023-07-16T12:13:25;22.10;94.50
5011;DHT22;2524;54.364;10.072;2023-07-16T12:15:51;22.10;94.30
5011;DHT22;2524;54.364;10.072;2023-07-16T12:18:16;22.10;94.30
5011;DHT22;2524;54.364;10.072;2023-07-16T12:20:42;22.10;94.50
5011;DHT22;2524;54.364;10.072;2023-07-16T12:23:08;22.20;94.60
5011;DHT22;2524;54.364;10.072;2023-07-16T12:25:34;22.20;94.60
5011;DHT22;2524;54.364;10.072;2023-07-16T12:28:00;22.30;94.90
5011;DHT22;2524;54.364;10.072;2023-07-16T12:30:27;22.50;94.90
5011;DHT22;2524;54.364;10.072;2023-07-16T12:32:52;22.50;94.90
5011;DHT22;2524;54.364;10.072;2023-07-16T12:35:18;22.70;94.40
5011;DHT22;2524;54.364;10.072;2023-07-16T12:37:43;22.80;94.60
5011;DHT22;2524;54.364;10.072;2023-07-16T12:40:09;22.90;93.60
5011;DHT22;2524;54.364;10.072;2023-07-16T12:42:35;22.90;93.50
5011;DHT22;2524;54.364;10.072;2023-07-16T12:45:01;23.00;93.10
5011;DHT22;2524;54.364;10.072;2023-07-16T12:47:27;23.00;93.60
5011;DHT22;2524;54.364;10.072;2023-07-16T12:49:52;23.10;93.40
5011;DHT22;2524;54.364;10.072;2023-07-16T12:52:18;23.10;93.30
5011;DHT22;2524;54.364;10.072;2023-07-16T12:54:43;23.20;93.10
5011;DHT22;2524;54.364;10.072;2023-07-16T12:57:09;23.20;93.20
5011;DHT22;2524;54.364;10.072;2023-07-16T12:59:34;23.30;92.40
5011;DHT22;2524;54.364;10.072;2023-07-16T13:02:00;23.40;92.20
5011;DHT22;2524;54.364;10.072;2023-07-16T13:04:25;23.40;92.30
5011;DHT22;2524;54.364;10.072;2023-07-16T13:06:52;23.40;92.10
5011;DHT22;2524;54.364;10.072;2023-07-16T13:09:17;23.40;92.40
5011;DHT22;2524;54.364;10.072;2023-07-16T13:11:43;23.40;92.50
5011;DHT22;2524;54.364;10.072;2023-07-16T13:14:09;23.60;92.70
5011;DHT22;2524;54.364;10.072;2023-07-16T13:16:34;23.60;92.70
5011;DHT22;2524;54.364;10.072;2023-07-16T13:19:00;23.70;92.60
5011;DHT22;2524;54.364;10.072;2023-07-16T13:21:25;23.80;92.30
5011;DHT22;2524;54.364;10.072;2023-07-16T13:23:51;23.80;92.00
5011;DHT22;2524;54.364;10.072;2023-07-16T13:26:17;24.00;92.10
5011;DHT22;2524;54.364;10.072;2023-07-16T13:28:42;24.00;90.90
5011;DHT22;2524;54.364;10.072;2023-07-16T13:31:08;23.90;90.70
5011;DHT22;2524;54.364;10.072;2023-07-16T13:33:33;23.90;90.20
5011;DHT22;2524;54.364;10.072;2023-07-16T13:36:01;23.90;90.10
5011;DHT22;2524;54.364;10.072;2023-07-16T13:38:30;23.90;89.40
5011;DHT22;2524;54.364;10.072;2023-07-16T13:40:56;23.90;89.30
5011;DHT22;2524;54.364;10.072;2023-07-16T13:43:21;23.70;87.60
5011;DHT22;2524;54.364;10.072;2023-07-16T13:45:47;23.80;87.10
5011;DHT22;2524;54.364;10.072;2023-07-16T13:48:12;23.80;87.90
5011;DHT22;2524;54.364;10.072;2023-07-16T13:50:38;23.90;88.20
5011;DHT22;2524;54.364;10.072;2023-07-16T13:53:03;23.80;87.60
5011;DHT22;2524;54.364;10.072;2023-07-16T13:55:29;23.80;87.00
5011;DHT22;2524;54.364;10.072;2023-07-16T13:57:54;23.70;87.30
5011;DHT22;2524;54.364;10.072;2023-07-16T14:00:23;23.70;87.70
5011;DHT22;2524;54.364;10.072;2023-07-16T14:02:48;23.70;87.70
5011;DHT22;2524;54.364;10.072;2023-07-16T14:05:14;23.70;86.60
5011;DHT22;2524;54.364;10.072;2023-07-16T14:07:39;23.60;86.30
5011;DHT22;2524;54.364;10.072;2023-07-16T14:10:06;23.70;85.90
5011;DHT22;2524;54.364;10.072;2023-07-16T14:12:32;23.50;86.10
5011;DHT22;2524;54.364;10.072;2023-07-16T14:14:58;23.40;85.90
5011;DHT22;2524;54.364;10.072;2023-07-16T14:17:24;23.40;86.50
5011;DHT22;2524;54.364;10.072;2023-07-16T14:19:50;23.40;86.50
5011;DHT22;2524;54.364;10.072;2023-07-16T14:22:16;23.40;86.30
5011;DHT22;2524;54.364;10.072;2023-07-16T14:24:42;23.30;86.00
5011;DHT22;2524;54.364;10.072;2023-07-16T14:27:08;23.20;85.80
5011;DHT22;2524;54.364;10.072;2023-07-16T14:29:34;23.20;86.10
5011;DHT22;2524;54.364;10.072;2023-07-16T14:32:00;23.10;86.80
5011;DHT22;2524;54.364;10.072;2023-07-16T14:34:26;23.20;87.00
5011;DHT22;2524;54.364;10.072;2023-07-16T14:36:52;23.20;88.00
5011;DHT22;2524;54.364;10.072;2023-07-16T14:39:18;23.30;87.80
5011;DHT22;2524;54.364;10.072;2023-07-16T14:41:44;23.30;86.60
5011;DHT22;2524;54.364;10.072;2023-07-16T14:44:10;23.40;86.90
5011;DHT22;2524;54.364;10.072;2023-07-16T14:46:36;23.40;86.00
5011;DHT22;2524;54.364;10.072;2023-07-16T14:49:03;23.40;86.00
5011;DHT22;2524;54.364;10.072;2023-07-16T14:51:28;23.30;86.10
5011;DHT22;2524;54.364;10.072;2023-07-16T14:53:55;23.30;85.90
5011;DHT22;2524;54.364;10.072;2023-07-16T14:56:21;23.40;86.00
5011;DHT22;2524;54.364;10.072;2023-07-16T14:58:46;23.30;86.00
5011;DHT22;2524;54.364;10.072;2023-07-16T15:01:12;23.30;86.30
5011;DHT22;2524;54.364;10.072;2023-07-16T15:03:37;23.20;86.50
5011;DHT22;2524;54.364;10.072;2023-07-16T15:06:05;23.30;86.90
5011;DHT22;2524;54.364;10.072;2023-07-16T15:08:31;23.30;86.70
5011;DHT22;2524;54.364;10.072;2023-07-16T15:10:59;23.20;86.10
5011;DHT22;2524;54.364;10.072;2023-07-16T15:13:24;23.10;86.30
5011;DHT22;2524;54.364;10.072;2023-07-16T15:15:52;23.10;86.70
5011;DHT22;2524;54.364;10.072;2023-07-16T15:18:19;23.10;87.60
5011;DHT22;2524;54.364;10.072;2023-07-16T15:20:45;23.30;88.00
5011;DHT22;2524;54.364;10.072;2023-07-16T15:23:11;23.20;87.50
5011;DHT22;2524;54.364;10.072;2023-07-16T15:25:37;23.20;87.60
5011;DHT22;2524;54.364;10.072;2023-07-16T15:28:02;23.20;87.50
5011;DHT22;2524;54.364;10.072;2023-07-16T15:30:29;23.20;87.50
5011;DHT22;2524;54.364;10.072;2023-07-16T15:32:55;23.20;87.70
5011;DHT22;2524;54.364;10.072;2023-07-16T15:35:20;23.20;88.20
5011;DHT22;2524;54.364;10.072;2023-07-16T15:37:46;23.20;87.80
5011;DHT22;2524;54.364;10.072;2023-07-16T15:40:13;23.20;87.90
5011;DHT22;2524;54.364;10.072;2023-07-16T15:42:39;23.10;87.80
5011;DHT22;2524;54.364;10.072;2023-07-16T15:45:05;23.30;88.10
5011;DHT22;2524;54.364;10.072;2023-07-16T15:47:31;23.10;87.90
5011;DHT22;2524;54.364;10.072;2023-07-16T15:49:57;23.10;87.80
5011;DHT22;2524;54.364;10.072;2023-07-16T15:52:22;23.20;88.10
5011;DHT22;2524;54.364;10.072;2023-07-16T15:54:48;23.10;87.90
5011;DHT22;2524;54.364;10.072;2023-07-16T15:57:13;23.10;88.50
5011;DHT22;2524;54.364;10.072;2023-07-16T15:59:39;23.20;88.40
5011;DHT22;2524;54.364;10.072;2023-07-16T16:02:05;23.10;88.30
5011;DHT22;2524;54.364;10.072;2023-07-16T16:04:30;23.10;88.50
5011;DHT22;2524;54.364;10.072;2023-07-16T16:06:56;23.00;88.60
5011;DHT22;2524;54.364;10.072;2023-07-16T16:09:21;23.10;88.60
5011;DHT22;2524;54.364;10.072;2023-07-16T16:11:47;23.10;88.70